Say No More — 20699QC — position and weather

sailwx.info

Track history (hours):
 
Tides and Currents Weather Stations Pressure Air Temp Water Temp Dewpoint Dewpoint Depression Visibility Wind Speed Wind Dir Waves Ship Positions

Say No More

Last reported at 2017-Nov-17 00:24 UTC. Time now 2017-Dec-18 22:31 UTC.
Position S 27°53' E 153°22'.
Warning: this ship's position is 31 days out of date.

Length 13 m.

Type: Sailing vessel. MMSI: 503786500.

Date/timePositionNaut miles runAvg speedWind from/ knotsBaromVisibWave heightAir tempDewpointWater temp
2017-Nov-17 00:24S 27°53' E 153°22'1 2.2
2017-Nov-17 00:00S 27°53' E 153°23'2 3.4
2017-Nov-16 23:30S 27°51' E 153°24'3 5.9
2017-Nov-16 23:00S 27°48' E 153°25'3 4.8
2017-Nov-16 22:29S 27°46' E 153°26'1 0.1
2017-Nov-16 09:53S 27°45' E 153°26'0 0.0
2017-Nov-16 09:30S 27°45' E 153°26'0 0.0
2017-Nov-16 09:00S 27°45' E 153°26'0 0.0
2017-Nov-16 08:29S 27°45' E 153°26'0 0.0
2017-Nov-16 08:00S 27°45' E 153°26'0 0.0
2017-Nov-16 07:30S 27°45' E 153°26'0 0.0
2017-Nov-16 06:59S 27°45' E 153°26'0 0.0
2017-Nov-16 06:31S 27°45' E 153°26'0 0.0
2017-Nov-16 06:00S 27°45' E 153°26'0 0.0
2017-Nov-16 05:30S 27°45' E 153°26'0 0.0
2017-Nov-16 05:00S 27°45' E 153°26'0 0.0
2017-Nov-16 04:30S 27°45' E 153°26'0 0.0
2017-Nov-16 04:00S 27°45' E 153°26'0 0.0
2017-Nov-16 03:30S 27°45' E 153°26'0 0.0
2017-Nov-16 03:00S 27°45' E 153°26'0 0.0
2017-Nov-16 02:30S 27°45' E 153°26'0 0.0
2017-Nov-16 02:00S 27°45' E 153°26'0 0.0
2017-Nov-16 01:29S 27°45' E 153°26'0 1.0
2017-Nov-16 01:00S 27°45' E 153°26'2 1.6
2017-Nov-15 23:39S 27°44' E 153°24'1 3.9
2017-Nov-15 23:29S 27°43' E 153°24'2 3.9
2017-Nov-15 22:59S 27°41' E 153°24'2 4.4
2017-Nov-15 22:30S 27°39' E 153°24'1 0.1
2017-Nov-15 12:05S 27°38' E 153°25'0 0.0
2017-Nov-15 12:00S 27°38' E 153°25'0 0.0
2017-Nov-15 11:29S 27°38' E 153°25'0 0.0
2017-Nov-15 11:00S 27°38' E 153°25'0 0.0
2017-Nov-15 10:25S 27°38' E 153°25'0 0.0
2017-Nov-15 09:54S 27°38' E 153°25'0 0.0
2017-Nov-15 09:09S 27°38' E 153°25'0 0.0
2017-Nov-15 08:57S 27°38' E 153°25'0 0.0
2017-Nov-15 08:23S 27°38' E 153°25'0 0.0
2017-Nov-15 07:07S 27°38' E 153°25'0 2.6
2017-Nov-15 07:00S 27°38' E 153°25'2 0.4
2017-Nov-15 01:34S 27°38' E 153°22'0 3.7
2017-Nov-15 01:30S 27°38' E 153°23'2 3.2
2017-Nov-15 00:59S 27°38' E 153°25'1 0.1
2017-Nov-14 11:22S 27°38' E 153°25'0 0.0
2017-Nov-14 11:00S 27°38' E 153°25'0 0.0
2017-Nov-14 10:29S 27°38' E 153°25'0 0.0
2017-Nov-14 10:00S 27°38' E 153°25'0 0.0
2017-Nov-14 09:30S 27°38' E 153°25'0 0.0
2017-Nov-14 09:00S 27°38' E 153°25'0 0.0
2017-Nov-14 08:30S 27°38' E 153°25'0 0.0
2017-Nov-14 07:58S 27°38' E 153°25'0 0.0
2017-Nov-14 07:26S 27°38' E 153°25'1 3.0
2017-Nov-14 07:00S 27°38' E 153°24'2 0.4
2017-Nov-14 02:37S 27°38' E 153°22'1 5.0
2017-Nov-14 02:30S 27°39' E 153°21'3 5.2
2017-Nov-14 02:00S 27°41' E 153°22'  
Track history (hours):
 
Tides and Currents Weather Stations Pressure Air Temp Water Temp Dewpoint Dewpoint Depression Visibility Wind Speed Wind Dir Waves Ship Positions

Say No More

Last reported at 2017-Nov-17 00:24 UTC. Time now 2017-Dec-18 22:31 UTC.
Position S 27°53' E 153°22'.
Warning: this ship's position is 31 days out of date.

Length 13 m.

Type: Sailing vessel. MMSI: 503786500.

Date/timePositionNaut miles runAvg speedWind from/ knotsBaromVisibWave heightAir tempDewpointWater temp
2017-Nov-17 00:24S 27°53' E 153°22'1 2.2
2017-Nov-17 00:00S 27°53' E 153°23'2 3.4
2017-Nov-16 23:30S 27°51' E 153°24'3 5.9
2017-Nov-16 23:00S 27°48' E 153°25'3 4.8
2017-Nov-16 22:29S 27°46' E 153°26'1 0.1
2017-Nov-16 09:53S 27°45' E 153°26'0 0.0
2017-Nov-16 09:30S 27°45' E 153°26'0 0.0
2017-Nov-16 09:00S 27°45' E 153°26'0 0.0
2017-Nov-16 08:29S 27°45' E 153°26'0 0.0
2017-Nov-16 08:00S 27°45' E 153°26'0 0.0
2017-Nov-16 07:30S 27°45' E 153°26'0 0.0
2017-Nov-16 06:59S 27°45' E 153°26'0 0.0
2017-Nov-16 06:31S 27°45' E 153°26'0 0.0
2017-Nov-16 06:00S 27°45' E 153°26'0 0.0
2017-Nov-16 05:30S 27°45' E 153°26'0 0.0
2017-Nov-16 05:00S 27°45' E 153°26'0 0.0
2017-Nov-16 04:30S 27°45' E 153°26'0 0.0
2017-Nov-16 04:00S 27°45' E 153°26'0 0.0
2017-Nov-16 03:30S 27°45' E 153°26'0 0.0
2017-Nov-16 03:00S 27°45' E 153°26'0 0.0
2017-Nov-16 02:30S 27°45' E 153°26'0 0.0
2017-Nov-16 02:00S 27°45' E 153°26'0 0.0
2017-Nov-16 01:29S 27°45' E 153°26'0 1.0
2017-Nov-16 01:00S 27°45' E 153°26'2 1.6
2017-Nov-15 23:39S 27°44' E 153°24'1 3.9
2017-Nov-15 23:29S 27°43' E 153°24'2 3.9
2017-Nov-15 22:59S 27°41' E 153°24'2 4.4
2017-Nov-15 22:30S 27°39' E 153°24'1 0.1
2017-Nov-15 12:05S 27°38' E 153°25'0 0.0
2017-Nov-15 12:00S 27°38' E 153°25'0 0.0
2017-Nov-15 11:29S 27°38' E 153°25'0 0.0
2017-Nov-15 11:00S 27°38' E 153°25'0 0.0
2017-Nov-15 10:25S 27°38' E 153°25'0 0.0
2017-Nov-15 09:54S 27°38' E 153°25'0 0.0
2017-Nov-15 09:09S 27°38' E 153°25'0 0.0
2017-Nov-15 08:57S 27°38' E 153°25'0 0.0
2017-Nov-15 08:23S 27°38' E 153°25'0 0.0
2017-Nov-15 07:07S 27°38' E 153°25'0 2.6
2017-Nov-15 07:00S 27°38' E 153°25'2 0.4
2017-Nov-15 01:34S 27°38' E 153°22'0 3.7
2017-Nov-15 01:30S 27°38' E 153°23'2 3.2
2017-Nov-15 00:59S 27°38' E 153°25'1 0.1
2017-Nov-14 11:22S 27°38' E 153°25'0 0.0
2017-Nov-14 11:00S 27°38' E 153°25'0 0.0
2017-Nov-14 10:29S 27°38' E 153°25'0 0.0
2017-Nov-14 10:00S 27°38' E 153°25'0 0.0
2017-Nov-14 09:30S 27°38' E 153°25'0 0.0
2017-Nov-14 09:00S 27°38' E 153°25'0 0.0
2017-Nov-14 08:30S 27°38' E 153°25'0 0.0
2017-Nov-14 07:58S 27°38' E 153°25'0 0.0
2017-Nov-14 07:26S 27°38' E 153°25'1 3.0
2017-Nov-14 07:00S 27°38' E 153°24'2 0.4
2017-Nov-14 02:37S 27°38' E 153°22'1 5.0
2017-Nov-14 02:30S 27°39' E 153°21'3 5.2
2017-Nov-14 02:00S 27°41' E 153°22'  

Dump ship's entire track history